createdAt,value
2019-01-14T00:02:07.194Z,6.39
2019-01-14T00:12:07.223Z,6.23
2019-01-14T00:22:07.181Z,6.09
2019-01-14T00:32:07.187Z,6.13
2019-01-14T00:42:07.285Z,6.15
2019-01-14T00:52:07.251Z,6.16
2019-01-14T01:02:07.111Z,6.24
2019-01-14T01:12:07.185Z,6.25
2019-01-14T01:22:07.157Z,6.21
2019-01-14T01:32:07.124Z,6.14
2019-01-14T01:42:07.079Z,6.13
2019-01-14T01:52:07.147Z,6.12
2019-01-14T02:02:07.154Z,6.10
2019-01-14T02:12:07.343Z,6.08
2019-01-14T02:22:07.112Z,6.12
2019-01-14T02:32:07.157Z,6.02
2019-01-14T02:42:07.062Z,5.92
2019-01-14T02:52:07.170Z,5.86
2019-01-14T03:02:07.141Z,5.87
2019-01-14T03:12:07.140Z,5.86
2019-01-14T03:22:07.163Z,5.82
2019-01-14T03:32:07.087Z,5.91
2019-01-14T03:42:07.326Z,5.93
2019-01-14T03:52:07.151Z,5.95
2019-01-14T04:02:07.091Z,5.95
2019-01-14T04:12:07.057Z,5.92
2019-01-14T04:22:07.125Z,5.78
2019-01-14T04:32:07.065Z,5.69
2019-01-14T04:42:07.143Z,5.49
2019-01-14T04:52:07.194Z,5.50
2019-01-14T05:02:07.072Z,5.58
2019-01-14T05:12:07.163Z,5.59
2019-01-14T05:22:07.149Z,5.62
2019-01-14T05:32:07.033Z,5.61
2019-01-14T05:42:07.147Z,5.64
2019-01-14T05:52:07.131Z,5.67
2019-01-14T06:02:07.083Z,5.64
2019-01-14T06:12:07.061Z,5.62
2019-01-14T06:22:07.471Z,5.56
2019-01-14T06:32:07.056Z,5.34
2019-01-14T06:42:07.635Z,4.57
2019-01-14T06:52:07.174Z,4.39
2019-01-14T07:02:07.039Z,4.47
2019-01-14T07:12:09.878Z,4.46
2019-01-14T07:22:07.637Z,4.47
2019-01-14T07:32:15.059Z,4.56
2019-01-14T07:42:07.300Z,4.26
2019-01-14T07:52:08.813Z,4.34
2019-01-14T08:02:07.123Z,4.51
2019-01-14T08:12:07.335Z,4.82
2019-01-14T08:22:07.043Z,4.94
2019-01-14T08:32:06.954Z,5.02
2019-01-14T08:42:07.374Z,5.05
2019-01-14T08:52:07.258Z,5.09
2019-01-14T09:02:07.232Z,5.23
2019-01-14T09:12:07.157Z,5.20
2019-01-14T09:22:07.139Z,5.17
2019-01-14T09:32:07.171Z,5.22
2019-01-14T09:42:07.495Z,5.24
2019-01-14T09:52:07.097Z,5.22
2019-01-14T10:02:07.636Z,5.33
2019-01-14T10:12:07.060Z,4.90
2019-01-14T10:22:07.076Z,4.61
2019-01-14T10:32:07.044Z,4.49
2019-01-14T10:42:07.138Z,4.58
2019-01-14T10:52:07.065Z,5.98
2019-01-14T11:02:07.026Z,6.50
2019-01-14T11:12:07.440Z,6.50
2019-01-14T11:22:06.979Z,6.07
2019-01-14T11:32:07.035Z,7.16
2019-01-14T11:42:07.258Z,6.69
2019-01-14T11:52:07.189Z,6.80
2019-01-14T12:02:07.040Z,6.34
2019-01-14T12:12:07.097Z,6.90
2019-01-14T12:22:07.059Z,6.71
2019-01-14T12:32:07.082Z,5.37
2019-01-14T12:42:07.844Z,5.12
2019-01-14T12:52:07.104Z,4.93
2019-01-14T13:02:07.001Z,5.21
2019-01-14T13:12:07.417Z,5.35
2019-01-14T13:22:07.090Z,5.18
2019-01-14T13:32:07.010Z,5.02
2019-01-14T13:42:07.390Z,4.81
2019-01-14T13:52:07.087Z,4.58
2019-01-14T14:02:07.106Z,4.59
2019-01-14T14:12:07.460Z,6.89
2019-01-14T14:22:11.700Z,7.49
2019-01-14T14:32:07.080Z,5.84
2019-01-14T14:42:07.588Z,4.43
2019-01-14T14:52:07.144Z,4.03
2019-01-14T15:02:07.095Z,3.93
2019-01-14T15:12:07.353Z,3.72
2019-01-14T15:22:07.066Z,3.55
2019-01-14T15:32:06.999Z,3.41
2019-01-14T15:42:07.476Z,3.25
2019-01-14T15:52:07.025Z,3.18
2019-01-14T16:02:06.986Z,3.16
2019-01-14T16:12:07.346Z,3.12
2019-01-14T16:22:07.158Z,2.91
2019-01-14T16:32:09.021Z,2.66
2019-01-14T16:42:07.060Z,2.55
2019-01-14T16:52:07.085Z,2.38
2019-01-14T17:02:07.068Z,2.28
2019-01-14T17:12:07.437Z,2.20
2019-01-14T17:22:06.915Z,2.43
2019-01-14T17:32:07.038Z,2.55
2019-01-14T17:42:07.034Z,2.69
2019-01-14T17:52:07.730Z,2.60
2019-01-14T18:02:07.092Z,2.25
2019-01-14T18:12:07.001Z,1.98
2019-01-14T18:22:07.384Z,1.76
2019-01-14T18:32:06.984Z,1.72
2019-01-14T18:42:08.119Z,1.72
2019-01-14T18:52:06.840Z,1.84
2019-01-14T19:02:08.089Z,2.01
2019-01-14T19:12:07.035Z,2.12
2019-01-14T19:22:06.955Z,2.06
2019-01-14T19:32:06.961Z,2.13
2019-01-14T19:42:06.925Z,2.17
2019-01-14T19:52:07.024Z,2.19
2019-01-14T20:02:07.130Z,2.29
2019-01-14T20:12:06.949Z,2.30
2019-01-14T20:22:06.971Z,2.34
2019-01-14T20:32:06.941Z,2.49
2019-01-14T20:42:07.419Z,2.68
2019-01-14T20:52:06.968Z,2.73
2019-01-14T21:02:06.998Z,2.75
2019-01-14T21:12:07.017Z,2.72
2019-01-14T21:22:06.919Z,2.60
2019-01-14T21:32:07.100Z,2.26
2019-01-14T21:42:07.133Z,2.03
2019-01-14T21:52:06.905Z,2.00
2019-01-14T22:02:06.932Z,2.02
2019-01-14T22:12:06.878Z,2.10
2019-01-14T22:22:06.903Z,2.20
2019-01-14T22:32:07.933Z,2.35
2019-01-14T22:42:07.454Z,2.42
2019-01-14T22:52:06.941Z,2.50
2019-01-14T23:02:06.911Z,2.50
2019-01-14T23:12:06.910Z,2.54
2019-01-14T23:22:08.001Z,2.60
2019-01-14T23:32:06.928Z,2.51
2019-01-14T23:42:06.910Z,2.41
2019-01-14T23:52:06.957Z,2.27
